Time;durP1;ratioP1;P1;durP2;ratioP2;P2;SDS_P1;SDS_P2;PMS_P1;PMS_P2;Temp;Humidity;BMP_temperature;BMP_pressure;BME280_temperature;BME280_humidity;BME280_pressure;Samples;Min_cycle;Max_cycle;Signal;HPM_P1;HPM_P2
2022/12/14 00:02:13;;;;;;;;;;;;;;;-8.91;81.95;99478.25;4975206;28;19920;-65
2022/12/14 00:04:39;;;;;;;;;;;;;;;-8.92;81.19;99474.81;5011097;28;19929;-62
2022/12/14 00:07:04;;;;;;;;;;;;;;;-8.95;80.89;99464.63;4996109;28;20735;-62
2022/12/14 00:09:29;;;;;;;;;;;;;;;-8.98;80.18;99464.78;4994488;28;20278;-62
2022/12/14 00:11:55;;;;;;;;;;;;;;;-9.02;80.19;99473.72;4994602;28;19960;-64
2022/12/14 00:14:20;;;;;;;;;;;;;;;-9.04;80.25;99468.63;4994715;28;19965;-62
2022/12/14 00:16:45;;;;;;;;;;;;;;;-9.07;79.55;99460.16;4993133;28;19940;-62
2022/12/14 00:19:11;;;;;;;;;;;;;;;-9.10;78.79;99457.72;4999237;28;20302;-62
2022/12/14 00:21:36;;;;;;;;;;;;;;;-9.04;80.04;99452.19;5014358;28;19963;-62
2022/12/14 00:24:01;;;;;;;;;;;;;;;-8.98;81.04;99449.19;5013758;28;19924;-62
2022/12/14 00:26:28;;;;;;;;;;;;;;;-8.99;80.18;99448.38;5013778;28;19917;-62
2022/12/14 00:28:54;;;;;;;;;;;;;;;-8.98;80.43;99449.19;4997836;28;19930;-62
2022/12/14 00:31:20;;;;;;;;;;;;;;;-8.96;80.61;99437.75;4994616;28;19914;-61
2022/12/14 00:33:46;;;;;;;;;;;;;;;-8.96;80.14;99442.94;5007072;28;19917;-64
2022/12/14 00:36:11;;;;;;;;;;;;;;;-8.93;81.15;99441.94;5013826;28;19914;-62
2022/12/14 00:38:37;;;;;;;;;;;;;;;-8.90;81.57;99433.94;5014347;28;20358;-62
2022/12/14 00:41:02;;;;;;;;;;;;;;;-8.97;79.42;99433.50;5013918;28;20015;-63
2022/12/14 00:43:28;;;;;;;;;;;;;;;-8.93;80.46;99433.28;4994474;28;20020;-63
2022/12/14 00:45:53;;;;;;;;;;;;;;;-8.95;80.02;99425.59;4994537;28;19914;-62
2022/12/14 00:48:19;;;;;;;;;;;;;;;-8.93;80.11;99415.06;4994101;28;19961;-62
2022/12/14 00:50:45;;;;;;;;;;;;;;;-9.01;78.10;99420.75;4994206;28;19921;-63
2022/12/14 00:53:10;;;;;;;;;;;;;;;-9.01;79.28;99415.56;4994150;28;19917;-63
2022/12/14 00:55:37;;;;;;;;;;;;;;;-9.03;78.87;99414.81;5008222;28;20377;-63
2022/12/14 00:58:03;;;;;;;;;;;;;;;-9.05;79.29;99412.31;5013772;28;19920;-62
2022/12/14 01:00:28;;;;;;;;;;;;;;;-9.06;78.69;99415.00;5010213;28;19917;-62
2022/12/14 01:02:53;;;;;;;;;;;;;;;-9.02;79.52;99408.72;5008843;28;19972;-62
2022/12/14 01:05:19;;;;;;;;;;;;;;;-9.01;78.89;99398.19;4993786;28;19918;-63
2022/12/14 01:07:44;;;;;;;;;;;;;;;-9.04;78.14;99407.97;4993835;28;19914;-62
2022/12/14 01:10:09;;;;;;;;;;;;;;;-9.02;78.82;99406.09;4992718;28;19921;-63
2022/12/14 01:12:34;;;;;;;;;;;;;;;-9.06;78.38;99413.25;4998007;28;19918;-62
2022/12/14 01:15:00;;;;;;;;;;;;;;;-9.05;78.65;99409.72;4999045;28;19921;-62
2022/12/14 01:17:25;;;;;;;;;;;;;;;-9.07;78.24;99419.38;5017718;28;19928;-63
2022/12/14 01:19:50;;;;;;;;;;;;;;;-9.10;77.52;99421.31;5018187;28;19920;-63
2022/12/14 01:22:15;;;;;;;;;;;;;;;-9.13;76.95;99409.38;5017849;28;19924;-62
2022/12/14 01:24:42;;;;;;;;;;;;;;;-9.17;77.00;99408.72;5018012;28;19921;-63
2022/12/14 01:27:07;;;;;;;;;;;;;;;-9.17;78.05;99400.91;5015757;28;19913;-63
2022/12/14 01:29:33;;;;;;;;;;;;;;;-9.19;76.93;99400.19;4998109;28;19961;-61
2022/12/14 01:31:58;;;;;;;;;;;;;;;-9.19;77.42;99400.19;4997740;28;20314;-63
2022/12/14 01:34:23;;;;;;;;;;;;;;;-9.21;78.10;99390.78;5015432;28;19925;-62
2022/12/14 01:36:49;;;;;;;;;;;;;;;-9.20;78.30;99405.47;5017639;28;19920;-63
2022/12/14 01:39:14;;;;;;;;;;;;;;;-9.27;77.50;99391.16;5001862;28;19921;-61
2022/12/14 01:41:44;;;;;;;;;;;;;;;-9.26;78.40;99392.84;4997573;28;20390;-63
2022/12/14 01:44:09;;;;;;;;;;;;;;;-9.24;78.72;99402.22;4997481;28;19922;-63
2022/12/14 01:46:51;;;;;;;;;;;;;;;-9.27;78.43;99402.41;4997760;28;19918;-62
2022/12/14 01:49:19;;;;;;;;;;;;;;;-9.25;78.37;99399.72;4997460;28;19918;-62
2022/12/14 01:51:47;;;;;;;;;;;;;;;-9.27;78.23;99399.78;4999718;28;19917;-62
2022/12/14 01:54:13;;;;;;;;;;;;;;;-9.25;78.47;99394.50;5002999;28;20349;-62
2022/12/14 01:56:41;;;;;;;;;;;;;;;-9.26;77.37;99403.25;5017214;28;20370;-62
2022/12/14 01:59:09;;;;;;;;;;;;;;;-9.26;77.64;99392.84;5016756;28;19921;-62
2022/12/14 02:01:35;;;;;;;;;;;;;;;-9.26;78.18;99403.25;5001639;28;20008;-65
2022/12/14 02:04:00;;;;;;;;;;;;;;;-9.30;76.14;99400.00;5011363;28;19944;-63
2022/12/14 02:06:29;;;;;;;;;;;;;;;-9.32;77.22;99388.88;5017050;28;19925;-63
2022/12/14 02:08:55;;;;;;;;;;;;;;;-9.27;78.69;99383.38;5016972;28;19945;-62
2022/12/14 02:11:31;;;;;;;;;;;;;;;-9.32;76.44;99375.88;5016231;28;19970;-63
2022/12/14 02:13:56;;;;;;;;;;;;;;;-9.28;77.44;99374.75;5016655;28;20012;-62
2022/12/14 02:16:24;;;;;;;;;;;;;;;-9.37;75.28;99378.75;5016118;28;20334;-63
2022/12/14 02:18:53;;;;;;;;;;;;;;;-9.33;77.11;99381.16;5016752;28;20262;-62
2022/12/14 02:21:21;;;;;;;;;;;;;;;-9.31;77.13;99385.31;5016264;28;19914;-62
2022/12/14 02:23:49;;;;;;;;;;;;;;;-9.33;76.81;99389.78;5015517;28;20258;-62
2022/12/14 02:26:29;;;;;;;;;;;;;;;-9.35;76.48;99384.69;4976883;28;20418;-62
2022/12/14 02:28:57;;;;;;;;;;;;;;;-9.32;76.67;99378.47;5007982;28;19913;-62
2022/12/14 02:31:38;;;;;;;;;;;;;;;-9.32;76.99;99375.00;5016193;28;19964;-61
2022/12/14 02:34:32;;;;;;;;;;;;;;;-9.27;78.39;99385.97;5012006;28;19918;-62
2022/12/14 02:37:02;;;;;;;;;;;;;;;-9.27;77.72;99389.41;4977376;28;19924;-62
2022/12/14 02:39:39;;;;;;;;;;;;;;;-9.29;77.01;99386.06;4996996;28;19913;-62
2022/12/14 02:42:12;;;;;;;;;;;;;;;-9.26;77.00;99385.06;5014976;28;19913;-62
2022/12/14 02:44:37;;;;;;;;;;;;;;;-9.23;77.79;99388.31;5016250;28;19917;-63
2022/12/14 02:47:08;;;;;;;;;;;;;;;-9.25;77.40;99390.13;5016270;28;19963;-62
2022/12/14 02:49:52;;;;;;;;;;;;;;;-9.26;77.55;99388.47;5016071;28;19913;-63
2022/12/14 02:52:23;;;;;;;;;;;;;;;-9.26;77.00;99395.44;5009147;28;19913;-62
2022/12/14 02:54:58;;;;;;;;;;;;;;;-9.32;76.18;99377.63;5004035;28;19921;-63
2022/12/14 02:57:31;;;;;;;;;;;;;;;-9.38;75.07;99386.63;5004616;28;20005;-63
2022/12/14 02:59:59;;;;;;;;;;;;;;;-9.38;75.65;99373.63;4996081;28;19972;-62
2022/12/14 03:02:25;;;;;;;;;;;;;;;-9.36;77.22;99375.22;4997107;28;19922;-62
2022/12/14 03:04:51;;;;;;;;;;;;;;;-9.35;76.92;99376.06;5015778;28;20373;-61
2022/12/14 03:07:25;;;;;;;;;;;;;;;-9.39;75.74;99378.00;5015771;28;19936;-62
2022/12/14 03:09:51;;;;;;;;;;;;;;;-9.40;75.61;99378.09;4977132;28;19953;-62
2022/12/14 03:12:18;;;;;;;;;;;;;;;-9.48;75.05;99368.16;4990372;28;19921;-62
2022/12/14 03:14:49;;;;;;;;;;;;;;;-9.41;77.11;99368.63;5015467;28;19967;-62
2022/12/14 03:17:20;;;;;;;;;;;;;;;-9.38;77.18;99373.63;5015206;28;20359;-62
2022/12/14 03:19:53;;;;;;;;;;;;;;;-9.38;77.18;99368.44;5015296;28;19913;-62
2022/12/14 03:22:27;;;;;;;;;;;;;;;-9.36;78.09;99370.03;5015163;28;19996;-62
2022/12/14 03:24:56;;;;;;;;;;;;;;;-9.36;76.19;99358.78;5015471;28;20012;-62
2022/12/14 03:27:24;;;;;;;;;;;;;;;-9.35;77.27;99352.66;5011255;28;19968;-62
2022/12/14 03:29:57;;;;;;;;;;;;;;;-9.35;76.45;99353.47;4995471;28;19921;-61
2022/12/14 03:32:24;;;;;;;;;;;;;;;-9.39;75.22;99353.78;4995995;28;19921;-62
2022/12/14 03:35:10;;;;;;;;;;;;;;;-9.39;76.04;99353.78;5014716;28;20388;-62
2022/12/14 03:37:43;;;;;;;;;;;;;;;-9.34;77.69;99351.75;5014555;28;20353;-62
2022/12/14 03:40:11;;;;;;;;;;;;;;;-9.31;78.15;99348.94;5015267;28;19952;-61
2022/12/14 03:42:42;;;;;;;;;;;;;;;-9.31;76.98;99345.50;5014971;28;19932;-60
2022/12/14 03:45:10;;;;;;;;;;;;;;;-9.35;75.59;99348.28;5014944;28;19935;-62
2022/12/14 03:47:36;;;;;;;;;;;;;;;-9.37;74.91;99354.53;5015037;28;20087;-62
2022/12/14 03:50:19;;;;;;;;;;;;;;;-9.46;73.60;99347.28;5014722;28;20004;-61
2022/12/14 03:52:52;;;;;;;;;;;;;;;-9.42;74.48;99348.75;5003964;28;20310;-61
2022/12/14 03:55:22;;;;;;;;;;;;;;;-9.42;74.38;99343.56;5006638;28;20388;-61
2022/12/14 03:58:26;;;;;;;;;;;;;;;-9.49;73.47;99337.06;5014895;28;19920;-61
2022/12/14 04:01:06;;;;;;;;;;;;;;;-9.52;73.68;99334.69;4991787;28;19965;-62
2022/12/14 04:03:49;;;;;;;;;;;;;;;-9.54;73.23;99339.97;4982193;28;19965;-62
2022/12/14 04:06:19;;;;;;;;;;;;;;;-9.49;74.88;99331.88;4987890;28;19925;-61
2022/12/14 04:08:49;;;;;;;;;;;;;;;-9.46;74.24;99323.91;4995263;28;20267;-61
2022/12/14 04:19:39;;;;;;;;;;;;;;;-9.40;76.24;99315.72;5014411;28;20362;-61
2022/12/14 04:22:10;;;;;;;;;;;;;;;-9.40;75.84;99302.72;5014419;28;19913;-62
2022/12/14 04:27:36;;;;;;;;;;;;;;;-9.35;75.49;99298.06;4995580;28;19918;-62
2022/12/14 04:30:02;;;;;;;;;;;;;;;-9.36;75.98;99302.44;4994581;28;20004;-62
2022/12/14 04:32:33;;;;;;;;;;;;;;;-9.35;75.93;99298.91;5002749;28;19921;-60
2022/12/14 04:35:17;;;;;;;;;;;;;;;-9.32;76.56;99302.22;5013905;28;20012;-61
2022/12/14 04:37:44;;;;;;;;;;;;;;;-9.29;76.29;99304.66;5014006;28;19914;-61
2022/12/14 04:40:12;;;;;;;;;;;;;;;-9.34;74.40;99302.34;5013879;28;19914;-61
2022/12/14 04:42:45;;;;;;;;;;;;;;;-9.33;75.12;99308.38;4999608;28;19939;-62
2022/12/14 04:45:14;;;;;;;;;;;;;;;-9.36;75.55;99306.78;4993786;28;19914;-61
2022/12/14 04:47:42;;;;;;;;;;;;;;;-9.31;76.72;99303.91;4997645;28;19918;-62
2022/12/14 04:50:26;;;;;;;;;;;;;;;-9.33;75.18;99292.78;5014020;28;19913;-62
2022/12/14 04:52:55;;;;;;;;;;;;;;;-9.35;75.25;99283.31;5002140;28;19967;-62
2022/12/14 04:55:29;;;;;;;;;;;;;;;-9.37;73.98;99294.75;5006690;28;19937;-60
2022/12/14 04:57:58;;;;;;;;;;;;;;;-9.35;75.14;99298.06;5014618;28;19914;-62
2022/12/14 05:00:24;;;;;;;;;;;;;;;-9.33;75.65;99300.56;5012752;28;20373;-63
2022/12/14 05:02:58;;;;;;;;;;;;;;;-9.30;75.43;99297.75;5013740;28;19925;-63
2022/12/14 05:05:52;;;;;;;;;;;;;;;-9.30;74.11;99302.97;5013627;28;19960;-63
2022/12/14 05:08:26;;;;;;;;;;;;;;;-9.32;74.27;99302.22;5008417;28;19920;-63
2022/12/14 05:10:55;;;;;;;;;;;;;;;-9.31;74.96;99302.13;5012495;28;19979;-61
2022/12/14 05:13:20;;;;;;;;;;;;;;;-9.26;74.85;99310.50;5013669;28;19917;-62
2022/12/14 05:15:47;;;;;;;;;;;;;;;-9.30;73.44;99306.41;5013080;28;19926;-61
2022/12/14 05:18:13;;;;;;;;;;;;;;;-9.28;74.87;99306.34;5013325;28;19956;-61
2022/12/14 05:20:38;;;;;;;;;;;;;;;-9.33;72.93;99305.78;4996930;28;19957;-60
2022/12/14 05:23:04;;;;;;;;;;;;;;;-9.28;75.50;99314.97;4993571;28;19929;-60
2022/12/14 05:25:29;;;;;;;;;;;;;;;-9.29;74.31;99304.66;4994294;28;19961;-61
2022/12/14 05:27:54;;;;;;;;;;;;;;;-9.30;74.18;99301.22;5002511;28;19920;-61
2022/12/14 05:30:20;;;;;;;;;;;;;;;-9.31;73.17;99299.53;5013722;28;20000;-62
2022/12/14 05:32:45;;;;;;;;;;;;;;;-9.32;72.39;99290.09;5013305;28;20020;-62
2022/12/14 05:35:11;;;;;;;;;;;;;;;-9.31;73.82;99294.34;5013450;28;20003;-62
2022/12/14 05:37:37;;;;;;;;;;;;;;;-9.27;74.91;99297.59;5013464;28;20071;-63
2022/12/14 05:40:02;;;;;;;;;;;;;;;-9.25;75.74;99286.16;5013541;28;20004;-64
2022/12/14 05:42:27;;;;;;;;;;;;;;;-9.25;75.88;99280.94;5012209;28;19972;-64
2022/12/14 05:44:53;;;;;;;;;;;;;;;-9.27;75.07;99284.59;5013230;28;20374;-64
2022/12/14 05:47:18;;;;;;;;;;;;;;;-9.28;75.00;99288.13;5012997;28;19921;-64
2022/12/14 05:49:44;;;;;;;;;;;;;;;-9.35;73.36;99290.28;5006274;28;20416;-64
2022/12/14 05:52:09;;;;;;;;;;;;;;;-9.39;73.05;99284.44;4998910;28;19949;-64
2022/12/14 05:54:34;;;;;;;;;;;;;;;-9.37;75.93;99282.56;5005393;28;19921;-64
2022/12/14 05:56:59;;;;;;;;;;;;;;;-9.42;73.50;99278.59;5002070;28;20301;-63
2022/12/14 05:59:25;;;;;;;;;;;;;;;-9.43;74.58;99271.75;5016764;28;19914;-64
2022/12/14 06:01:50;;;;;;;;;;;;;;;-9.44;75.17;99268.28;4999221;28;19917;-64
2022/12/14 06:04:16;;;;;;;;;;;;;;;-9.45;75.50;99269.22;5013146;28;19971;-64
2022/12/14 06:06:41;;;;;;;;;;;;;;;-9.46;75.49;99258.94;5016451;28;19913;-64
2022/12/14 06:09:08;;;;;;;;;;;;;;;-9.47;76.28;99259.84;5016496;28;19924;-64
2022/12/14 06:11:36;;;;;;;;;;;;;;;-9.51;75.87;99264.41;5016291;28;20032;-64
2022/12/14 06:14:01;;;;;;;;;;;;;;;-9.57;75.80;99263.00;5016229;28;19925;-63
2022/12/14 06:16:27;;;;;;;;;;;;;;;-9.55;76.63;99262.94;5015848;28;19925;-64
2022/12/14 06:18:53;;;;;;;;;;;;;;;-9.57;76.41;99260.41;5013969;28;19913;-63
2022/12/14 06:21:19;;;;;;;;;;;;;;;-9.62;74.20;99261.63;4996533;28;20001;-64
2022/12/14 06:23:45;;;;;;;;;;;;;;;-9.69;73.17;99258.59;5012606;28;19925;-64
2022/12/14 06:26:15;;;;;;;;;;;;;;;-9.68;74.84;99257.66;5016447;28;19913;-64
2022/12/14 06:28:40;;;;;;;;;;;;;;;-9.70;75.39;99253.50;5001975;28;20433;-64
2022/12/14 06:31:06;;;;;;;;;;;;;;;-9.74;75.45;99256.28;4996592;28;19914;-64
2022/12/14 06:33:33;;;;;;;;;;;;;;;-9.76;75.66;99259.91;5006870;28;20374;-62
2022/12/14 06:35:59;;;;;;;;;;;;;;;-9.83;75.59;99256.84;5015809;28;20565;-64
2022/12/14 06:38:24;;;;;;;;;;;;;;;-9.84;76.01;99268.19;5016149;28;19969;-64
2022/12/14 06:40:50;;;;;;;;;;;;;;;-9.85;76.42;99269.09;5016025;28;19920;-64
2022/12/14 06:43:15;;;;;;;;;;;;;;;-9.88;76.18;99273.63;5014491;28;19950;-64
2022/12/14 06:45:40;;;;;;;;;;;;;;;-9.89;77.56;99275.41;5016010;28;19913;-64
2022/12/14 06:48:05;;;;;;;;;;;;;;;-9.93;76.48;99276.53;5015649;28;19918;-64
2022/12/14 06:50:31;;;;;;;;;;;;;;;-9.99;77.02;99280.34;5015828;28;20003;-65
2022/12/14 06:52:56;;;;;;;;;;;;;;;-10.04;77.18;99274.56;5007996;28;19960;-65
2022/12/14 06:55:22;;;;;;;;;;;;;;;-10.10;76.08;99277.56;5003227;28;20012;-65
2022/12/14 06:57:51;;;;;;;;;;;;;;;-10.10;77.28;99285.34;4995891;28;19928;-65
2022/12/14 07:00:21;;;;;;;;;;;;;;;-10.09;77.35;99294.78;4995844;28;19936;-65
2022/12/14 07:02:47;;;;;;;;;;;;;;;-10.09;77.38;99284.41;5000527;28;20005;-64
2022/12/14 07:05:13;;;;;;;;;;;;;;;-10.12;77.50;99287.19;5015782;28;19944;-64
2022/12/14 07:07:38;;;;;;;;;;;;;;;-10.14;78.31;99287.28;5015964;28;20366;-64
2022/12/14 07:10:05;;;;;;;;;;;;;;;-10.16;77.70;99298.66;5014828;28;19947;-64
2022/12/14 07:12:30;;;;;;;;;;;;;;;-10.19;77.92;99301.47;5015121;28;19918;-64
2022/12/14 07:14:55;;;;;;;;;;;;;;;-10.18;78.83;99303.13;5014484;28;19917;-64
2022/12/14 07:17:21;;;;;;;;;;;;;;;-10.24;78.07;99299.13;4985443;28;19945;-64
2022/12/14 07:19:46;;;;;;;;;;;;;;;-10.30;77.80;99309.88;4984910;28;19925;-64
2022/12/14 07:22:11;;;;;;;;;;;;;;;-10.36;77.22;99324.06;4984498;28;20262;-63
2022/12/14 07:24:37;;;;;;;;;;;;;;;-10.41;76.85;99314.88;4986455;28;19995;-64
2022/12/14 07:27:02;;;;;;;;;;;;;;;-10.40;77.92;99317.41;4987895;28;19958;-66
2022/12/14 07:29:27;;;;;;;;;;;;;;;-10.44;77.87;99326.25;4995289;28;19913;-64
2022/12/14 07:31:53;;;;;;;;;;;;;;;-10.52;78.03;99325.88;4995730;28;20285;-65
2022/12/14 07:34:18;;;;;;;;;;;;;;;-10.63;76.66;99328.25;5011871;28;19923;-65
2022/12/14 07:36:43;;;;;;;;;;;;;;;-10.71;78.02;99334.72;5014809;28;20289;-65
2022/12/14 07:39:15;;;;;;;;;;;;;;;-10.80;77.16;99335.22;5014950;28;19949;-65
2022/12/14 07:41:41;;;;;;;;;;;;;;;-10.86;76.65;99340.78;5014639;28;19918;-65
2022/12/14 07:44:07;;;;;;;;;;;;;;;-10.95;76.53;99344.72;5015039;28;19960;-66
2022/12/14 07:46:32;;;;;;;;;;;;;;;-11.04;76.84;99349.56;4997761;28;19921;-64
2022/12/14 07:48:58;;;;;;;;;;;;;;;-11.18;76.94;99351.16;4997781;28;20344;-65
2022/12/14 07:51:27;;;;;;;;;;;;;;;-11.28;77.02;99352.56;5014766;28;19918;-65
2022/12/14 07:53:53;;;;;;;;;;;;;;;-11.31;78.77;99355.31;5013512;28;19921;-66
2022/12/14 07:56:20;;;;;;;;;;;;;;;-11.36;79.05;99367.72;5009759;28;19967;-65
2022/12/14 07:58:46;;;;;;;;;;;;;;;-11.43;78.24;99372.38;4995096;28;19953;-64
2022/12/14 08:01:17;;;;;;;;;;;;;;;-11.46;78.95;99374.28;4994944;28;19929;-65
2022/12/14 08:03:44;;;;;;;;;;;;;;;-11.42;79.60;99368.88;5006618;28;20012;-64
2022/12/14 08:06:10;;;;;;;;;;;;;;;-11.35;79.52;99369.38;5014210;28;19913;-65
2022/12/14 08:08:36;;;;;;;;;;;;;;;-11.32;80.34;99375.22;4995976;28;19914;-64
2022/12/14 08:11:01;;;;;;;;;;;;;;;-11.35;78.94;99383.16;4981296;28;19914;-64
2022/12/14 08:13:27;;;;;;;;;;;;;;;-11.38;79.47;99391.09;4994409;28;19972;-65
2022/12/14 08:15:52;;;;;;;;;;;;;;;-11.51;78.06;99395.25;4994268;28;20018;-65
2022/12/14 08:18:17;;;;;;;;;;;;;;;-11.58;79.20;99406.84;4994944;28;19914;-66
2022/12/14 08:20:43;;;;;;;;;;;;;;;-12.03;78.87;99343.59;4993779;28;19965;-66
2022/12/14 08:23:08;;;;;;;;;;;;;;;-11.73;78.96;99413.66;4994325;28;19913;-66
2022/12/14 08:25:33;;;;;;;;;;;;;;;-11.78;79.64;99415.66;4994520;28;20377;-66
2022/12/14 08:27:59;;;;;;;;;;;;;;;-11.84;79.16;99410.78;5003514;28;19920;-66
2022/12/14 08:30:24;;;;;;;;;;;;;;;-11.94;79.15;99413.88;5014113;28;19917;-66
2022/12/14 08:32:49;;;;;;;;;;;;;;;-11.83;80.85;99415.03;5013895;28;20265;-66
2022/12/14 08:35:15;;;;;;;;;;;;;;;-11.95;79.76;99407.00;5013824;28;19913;-66
2022/12/14 08:37:41;;;;;;;;;;;;;;;-12.02;79.62;99413.41;5014343;28;20261;-66
2022/12/14 08:40:07;;;;;;;;;;;;;;;-12.10;79.42;99408.63;5013681;28;19918;-66
2022/12/14 08:42:32;;;;;;;;;;;;;;;-12.14;79.82;99403.69;5013909;28;20483;-66
2022/12/14 08:44:58;;;;;;;;;;;;;;;-12.10;80.75;99407.78;5013697;28;19913;-66
2022/12/14 08:47:23;;;;;;;;;;;;;;;-12.13;80.45;99402.75;5013736;28;19925;-66
2022/12/14 08:49:48;;;;;;;;;;;;;;;-12.20;80.45;99403.97;5014086;28;19936;-65
2022/12/14 08:52:20;;;;;;;;;;;;;;;-12.20;81.45;99409.16;5013613;28;19917;-65
2022/12/14 08:54:45;;;;;;;;;;;;;;;-12.36;80.60;99409.09;5006483;28;19933;-66
2022/12/14 08:57:10;;;;;;;;;;;;;;;-12.46;79.67;99406.09;4994185;28;19914;-65
2022/12/14 08:59:35;;;;;;;;;;;;;;;-12.51;80.16;99403.75;4994006;28;19924;-65
2022/12/14 09:02:01;;;;;;;;;;;;;;;-12.45;79.76;99404.34;4993937;28;19957;-65
2022/12/14 09:04:26;;;;;;;;;;;;;;;-12.49;80.46;99403.66;5011693;28;19917;-65
2022/12/14 09:06:51;;;;;;;;;;;;;;;-12.52;80.47;99412.38;5013719;28;19996;-65
2022/12/14 09:09:17;;;;;;;;;;;;;;;-12.59;79.95;99412.75;4997883;28;19921;-65
2022/12/14 09:11:43;;;;;;;;;;;;;;;-12.61;80.21;99410.25;4993979;28;20340;-65
2022/12/14 09:14:09;;;;;;;;;;;;;;;-12.61;79.98;99410.25;4993945;28;19922;-65
2022/12/14 09:16:35;;;;;;;;;;;;;;;-12.63;80.22;99411.25;4992300;28;20389;-65
2022/12/14 09:19:00;;;;;;;;;;;;;;;-12.58;79.72;99411.88;4993667;28;20029;-65
2022/12/14 09:21:25;;;;;;;;;;;;;;;-12.58;79.56;99411.88;4994083;28;19918;-65
2022/12/14 09:23:51;;;;;;;;;;;;;;;-12.59;80.53;99400.69;4993594;28;19924;-64
2022/12/14 09:26:17;;;;;;;;;;;;;;;-12.54;80.71;99403.88;4993406;28;19918;-65
2022/12/14 09:28:52;;;;;;;;;;;;;;;-12.45;82.16;99401.78;5008264;28;19914;-65
2022/12/14 09:31:27;;;;;;;;;;;;;;;-12.41;81.27;99398.94;5014410;28;19913;-65
2022/12/14 09:33:53;;;;;;;;;;;;;;;-12.47;79.86;99404.44;5017247;28;19968;-65
2022/12/14 09:36:20;;;;;;;;;;;;;;;-12.47;80.68;99404.44;5016940;28;19953;-65
2022/12/14 09:38:45;;;;;;;;;;;;;;;-12.41;80.85;99392.94;5017108;28;19913;-65
2022/12/14 09:41:19;;;;;;;;;;;;;;;-12.37;80.94;99403.06;5016966;28;20016;-65
2022/12/14 09:44:11;;;;;;;;;;;;;;;-12.47;79.86;99399.25;5017448;28;19913;-64
2022/12/14 09:46:45;;;;;;;;;;;;;;;-12.41;81.09;99403.28;5001398;28;20008;-65
2022/12/14 09:49:28;;;;;;;;;;;;;;;-12.38;81.55;99403.97;5017299;28;20055;-65
2022/12/14 09:51:55;;;;;;;;;;;;;;;-12.37;79.88;99391.88;5016957;28;19913;-65
2022/12/14 09:54:23;;;;;;;;;;;;;;;-12.35;79.56;99388.31;5012158;28;20378;-63
2022/12/14 09:56:48;;;;;;;;;;;;;;;-12.31;80.08;99389.84;4997166;28;20275;-63
2022/12/14 09:59:16;;;;;;;;;;;;;;;-12.33;79.58;99398.56;4997022;28;19964;-64
2022/12/14 10:01:47;;;;;;;;;;;;;;;-12.33;79.89;99401.16;4997080;28;19920;-65
2022/12/14 10:04:18;;;;;;;;;;;;;;;-12.42;79.37;99404.19;5007955;28;19914;-64
2022/12/14 10:06:44;;;;;;;;;;;;;;;-12.44;79.37;99404.28;4997483;28;19953;-65
2022/12/14 10:09:25;;;;;;;;;;;;;;;-12.46;79.10;99398.31;4996662;28;20378;-65
2022/12/14 10:11:56;;;;;;;;;;;;;;;-12.39;80.42;99402.28;4979337;28;19958;-65
2022/12/14 10:14:33;;;;;;;;;;;;;;;-12.40;79.47;99413.56;4996729;28;19962;-65
2022/12/14 10:17:19;;;;;;;;;;;;;;;-12.50;77.21;99417.50;4996628;28;19922;-66
2022/12/14 10:19:53;;;;;;;;;;;;;;;-12.48;77.29;99405.31;4997160;28;19929;-66
2022/12/14 10:22:30;;;;;;;;;;;;;;;-12.40;77.89;99421.31;4996902;28;20281;-65
2022/12/14 10:25:04;;;;;;;;;;;;;;;-12.36;78.03;99424.59;4996588;28;19964;-66
2022/12/14 10:27:32;;;;;;;;;;;;;;;-12.24;78.42;99420.56;5001325;28;19920;-65
2022/12/14 10:30:02;;;;;;;;;;;;;;;-12.20;78.18;99422.09;5016477;28;19996;-65
2022/12/14 10:32:33;;;;;;;;;;;;;;;-12.18;76.42;99425.44;5016140;28;19919;-66
2022/12/14 10:35:19;;;;;;;;;;;;;;;-12.04;78.31;99417.00;5016192;28;19918;-66
2022/12/14 10:37:47;;;;;;;;;;;;;;;-12.00;76.61;99429.69;5015994;28;19924;-66
2022/12/14 10:40:25;;;;;;;;;;;;;;;-11.93;76.21;99423.31;5016089;28;20348;-66
2022/12/14 10:43:09;;;;;;;;;;;;;;;-11.79;77.67;99420.00;5014152;28;19921;-66
2022/12/14 10:45:39;;;;;;;;;;;;;;;-11.63;77.91;99424.38;5015975;28;19925;-66
2022/12/14 10:48:04;;;;;;;;;;;;;;;-11.50;77.69;99426.25;5016098;28;19915;-65
2022/12/14 10:50:42;;;;;;;;;;;;;;;-11.39;76.87;99420.50;5015812;28;20332;-66
2022/12/14 10:53:11;;;;;;;;;;;;;;;-11.31;76.73;99418.38;5015206;28;19922;-66
2022/12/14 10:55:38;;;;;;;;;;;;;;;-11.22;77.17;99417.03;4999942;28;19918;-66
2022/12/14 10:58:04;;;;;;;;;;;;;;;-11.13;75.53;99423.47;4996189;28;19913;-66
2022/12/14 11:00:32;;;;;;;;;;;;;;;-10.99;76.44;99427.94;4995551;28;19913;-66
2022/12/14 11:02:57;;;;;;;;;;;;;;;-10.93;74.75;99425.00;5001852;28;19937;-66
2022/12/14 11:05:22;;;;;;;;;;;;;;;-10.86;74.86;99426.34;5015531;28;19920;-66
2022/12/14 11:07:48;;;;;;;;;;;;;;;-10.80;75.28;99425.16;5015561;28;19996;-66
2022/12/14 11:10:20;;;;;;;;;;;;;;;-10.81;72.39;99421.72;5015824;28;19914;-66
2022/12/14 11:13:00;;;;;;;;;;;;;;;-10.74;74.18;99432.59;5015347;28;19963;-66
2022/12/14 11:15:28;;;;;;;;;;;;;;;-10.69;72.47;99427.19;5015220;28;20012;-66
2022/12/14 11:18:06;;;;;;;;;;;;;;;-10.54;73.84;99421.13;5015246;28;19953;-66
2022/12/14 11:20:32;;;;;;;;;;;;;;;-8.38;71.13;99420.19;5015341;28;19917;-65
2022/12/14 11:23:05;;;;;;;;;;;;;;;-5.19;60.39;99415.06;5015311;28;19914;-65
2022/12/14 11:25:56;;;;;;;;;;;;;;;-3.38;52.58;99409.97;5015207;28;20326;-65
2022/12/14 11:28:22;;;;;;;;;;;;;;;-2.19;50.38;99416.25;5012903;28;19914;-65
2022/12/14 11:30:58;;;;;;;;;;;;;;;-1.59;44.62;99408.22;5015544;28;19920;-65
2022/12/14 11:33:27;;;;;;;;;;;;;;;-0.96;46.59;99412.84;5014885;28;19928;-65
2022/12/14 11:35:52;;;;;;;;;;;;;;;-0.79;43.06;99416.53;5015332;28;19917;-65
2022/12/14 11:38:18;;;;;;;;;;;;;;;-1.04;42.31;99412.72;5013568;28;19936;-65
2022/12/14 11:40:44;;;;;;;;;;;;;;;-3.34;47.75;99419.28;5013596;28;19913;-66
2022/12/14 11:43:20;;;;;;;;;;;;;;;-4.52;50.19;99414.13;5014616;28;20370;-65
2022/12/14 11:45:49;;;;;;;;;;;;;;;-3.03;47.75;99414.84;5014795;28;19936;-65
2022/12/14 11:48:14;;;;;;;;;;;;;;;-1.92;45.73;99412.94;5014980;28;19913;-66
2022/12/14 11:50:43;;;;;;;;;;;;;;;-1.31;47.68;99405.63;5014740;28;19959;-66
2022/12/14 11:53:10;;;;;;;;;;;;;;;-1.03;43.58;99398.59;5013820;28;19918;-65
2022/12/14 11:55:38;;;;;;;;;;;;;;;-0.85;42.13;99407.38;5000392;28;20044;-65
2022/12/14 11:58:04;;;;;;;;;;;;;;;-0.83;42.06;99402.81;4995326;28;19914;-65
2022/12/14 12:00:44;;;;;;;;;;;;;;;-0.81;43.54;99410.56;4994854;28;19918;-66
2022/12/14 12:03:24;;;;;;;;;;;;;;;-0.79;45.46;99417.34;5002428;28;20369;-65
2022/12/14 12:05:51;;;;;;;;;;;;;;;-0.90;44.29;99408.81;5014693;28;19913;-65
2022/12/14 12:08:19;;;;;;;;;;;;;;;-1.01;44.64;99401.91;5014379;28;19914;-65
2022/12/14 12:10:45;;;;;;;;;;;;;;;-1.10;46.22;99397.50;5003760;28;19913;-66
2022/12/14 12:13:17;;;;;;;;;;;;;;;-1.35;46.63;99394.56;4994474;28;20370;-66
2022/12/14 12:15:46;;;;;;;;;;;;;;;-1.61;45.80;99397.00;4994568;28;19968;-66
2022/12/14 12:18:31;;;;;;;;;;;;;;;-2.06;47.70;99394.94;4993775;28;20025;-65
2022/12/14 12:21:11;;;;;;;;;;;;;;;-2.88;47.72;99403.97;4994609;28;19921;-66
2022/12/14 12:23:40;;;;;;;;;;;;;;;-3.83;52.98;99407.66;4993842;28;19918;-66
2022/12/14 12:26:17;;;;;;;;;;;;;;;-4.72;54.57;99407.84;4995017;28;20381;-65
2022/12/14 12:28:54;;;;;;;;;;;;;;;-5.40;57.29;99412.28;5009829;28;19914;-65
2022/12/14 12:31:28;;;;;;;;;;;;;;;-5.83;58.95;99408.56;5014461;28;19917;-65
2022/12/14 12:33:56;;;;;;;;;;;;;;;-6.09;59.21;99415.72;5014210;28;19928;-65
2022/12/14 12:36:22;;;;;;;;;;;;;;;-6.22;60.93;99413.22;5013230;28;20298;-65
2022/12/14 12:38:55;;;;;;;;;;;;;;;-6.39;61.52;99409.19;5014471;28;19919;-65
2022/12/14 12:41:24;;;;;;;;;;;;;;;-6.60;61.89;99408.97;5013939;28;20375;-66
2022/12/14 12:43:53;;;;;;;;;;;;;;;-6.74;61.94;99406.53;5013717;28;20358;-66
2022/12/14 12:46:20;;;;;;;;;;;;;;;-6.86;62.33;99403.84;5013576;28;19914;-66
2022/12/14 12:48:49;;;;;;;;;;;;;;;-6.93;63.28;99407.81;5013775;28;19913;-66
2022/12/14 12:51:18;;;;;;;;;;;;;;;-6.97;64.08;99408.16;5013808;28;19945;-66
2022/12/14 12:53:45;;;;;;;;;;;;;;;-7.03;64.86;99397.22;5001668;28;20298;-66
2022/12/14 12:56:13;;;;;;;;;;;;;;;-7.16;64.17;99395.59;5013274;28;19925;-66
2022/12/14 12:58:39;;;;;;;;;;;;;;;-7.30;63.75;99405.22;5013892;28;20000;-66
2022/12/14 13:01:27;;;;;;;;;;;;;;;-7.31;65.07;99394.88;5002318;28;19920;-66
2022/12/14 13:03:56;;;;;;;;;;;;;;;-7.32;66.53;99398.41;5007342;28;19913;-66